sensor_id;sensor_type;location;lat;lon;timestamp;P1;durP1;ratioP1;P2;durP2;ratioP2
12267;SDS011;6196;48.398;11.736;2023-05-27T00:02:04;8.93;;;6.37;;
12267;SDS011;6196;48.398;11.736;2023-05-27T00:04:31;10.60;;;6.50;;
12267;SDS011;6196;48.398;11.736;2023-05-27T00:06:58;8.47;;;6.67;;
12267;SDS011;6196;48.398;11.736;2023-05-27T00:09:25;13.90;;;6.90;;
12267;SDS011;6196;48.398;11.736;2023-05-27T00:11:52;11.47;;;7.07;;
12267;SDS011;6196;48.398;11.736;2023-05-27T00:14:19;10.00;;;7.23;;
12267;SDS011;6196;48.398;11.736;2023-05-27T00:16:48;11.03;;;7.20;;
12267;SDS011;6196;48.398;11.736;2023-05-27T00:19:15;10.00;;;6.63;;
12267;SDS011;6196;48.398;11.736;2023-05-27T00:21:45;10.10;;;6.93;;
12267;SDS011;6196;48.398;11.736;2023-05-27T00:24:12;10.10;;;7.33;;
12267;SDS011;6196;48.398;11.736;2023-05-27T00:26:39;7.63;;;6.83;;
12267;SDS011;6196;48.398;11.736;2023-05-27T00:29:06;10.10;;;6.90;;
12267;SDS011;6196;48.398;11.736;2023-05-27T00:31:33;8.87;;;6.73;;
12267;SDS011;6196;48.398;11.736;2023-05-27T00:34:01;9.73;;;6.60;;
12267;SDS011;6196;48.398;11.736;2023-05-27T00:36:29;9.40;;;7.07;;
12267;SDS011;6196;48.398;11.736;2023-05-27T00:38:57;11.30;;;7.27;;
12267;SDS011;6196;48.398;11.736;2023-05-27T00:41:24;9.37;;;7.13;;
12267;SDS011;6196;48.398;11.736;2023-05-27T00:43:53;9.30;;;7.03;;
12267;SDS011;6196;48.398;11.736;2023-05-27T00:46:22;12.53;;;7.30;;
12267;SDS011;6196;48.398;11.736;2023-05-27T00:48:49;9.03;;;6.87;;
12267;SDS011;6196;48.398;11.736;2023-05-27T00:51:16;8.47;;;7.23;;
12267;SDS011;6196;48.398;11.736;2023-05-27T00:53:43;10.10;;;7.10;;
12267;SDS011;6196;48.398;11.736;2023-05-27T00:56:11;10.30;;;7.30;;
12267;SDS011;6196;48.398;11.736;2023-05-27T00:58:42;12.07;;;7.20;;
12267;SDS011;6196;48.398;11.736;2023-05-27T01:01:11;8.47;;;7.10;;
12267;SDS011;6196;48.398;11.736;2023-05-27T01:03:38;9.70;;;7.30;;
12267;SDS011;6196;48.398;11.736;2023-05-27T01:06:11;9.43;;;7.00;;
12267;SDS011;6196;48.398;11.736;2023-05-27T01:11:38;8.23;;;6.63;;
12267;SDS011;6196;48.398;11.736;2023-05-27T01:14:19;8.20;;;7.00;;
12267;SDS011;6196;48.398;11.736;2023-05-27T01:16:48;10.13;;;6.60;;
12267;SDS011;6196;48.398;11.736;2023-05-27T01:19:23;8.40;;;6.83;;
12267;SDS011;6196;48.398;11.736;2023-05-27T01:21:57;9.67;;;7.00;;
12267;SDS011;6196;48.398;11.736;2023-05-27T01:24:27;10.80;;;6.80;;
12267;SDS011;6196;48.398;11.736;2023-05-27T01:26:54;9.70;;;6.87;;
12267;SDS011;6196;48.398;11.736;2023-05-27T01:29:28;9.23;;;7.30;;
12267;SDS011;6196;48.398;11.736;2023-05-27T01:31:58;9.63;;;7.27;;
12267;SDS011;6196;48.398;11.736;2023-05-27T01:34:34;9.27;;;6.93;;
12267;SDS011;6196;48.398;11.736;2023-05-27T01:37:08;9.73;;;6.50;;
12267;SDS011;6196;48.398;11.736;2023-05-27T01:39:40;8.30;;;6.47;;
12267;SDS011;6196;48.398;11.736;2023-05-27T01:42:09;10.23;;;7.13;;
12267;SDS011;6196;48.398;11.736;2023-05-27T01:44:36;9.03;;;6.67;;
12267;SDS011;6196;48.398;11.736;2023-05-27T01:47:03;10.50;;;7.00;;
12267;SDS011;6196;48.398;11.736;2023-05-27T01:49:31;11.70;;;6.53;;
12267;SDS011;6196;48.398;11.736;2023-05-27T01:51:58;10.30;;;7.03;;
12267;SDS011;6196;48.398;11.736;2023-05-27T01:54:25;7.20;;;6.50;;
12267;SDS011;6196;48.398;11.736;2023-05-27T01:56:51;7.57;;;6.67;;
12267;SDS011;6196;48.398;11.736;2023-05-27T01:59:19;10.07;;;7.47;;
12267;SDS011;6196;48.398;11.736;2023-05-27T02:01:46;10.77;;;7.47;;
12267;SDS011;6196;48.398;11.736;2023-05-27T02:04:13;9.70;;;7.10;;
12267;SDS011;6196;48.398;11.736;2023-05-27T02:06:40;9.93;;;6.47;;
12267;SDS011;6196;48.398;11.736;2023-05-27T02:09:07;9.27;;;6.50;;
12267;SDS011;6196;48.398;11.736;2023-05-27T02:11:33;10.53;;;7.27;;
12267;SDS011;6196;48.398;11.736;2023-05-27T02:14:00;10.50;;;7.03;;
12267;SDS011;6196;48.398;11.736;2023-05-27T02:16:27;11.07;;;6.87;;
12267;SDS011;6196;48.398;11.736;2023-05-27T02:18:56;8.23;;;6.63;;
12267;SDS011;6196;48.398;11.736;2023-05-27T02:21:23;9.03;;;6.47;;
12267;SDS011;6196;48.398;11.736;2023-05-27T02:23:50;11.20;;;6.80;;
12267;SDS011;6196;48.398;11.736;2023-05-27T02:26:17;10.13;;;6.87;;
12267;SDS011;6196;48.398;11.736;2023-05-27T02:28:44;9.87;;;7.07;;
12267;SDS011;6196;48.398;11.736;2023-05-27T02:31:11;11.03;;;7.27;;
12267;SDS011;6196;48.398;11.736;2023-05-27T02:33:38;8.63;;;6.67;;
12267;SDS011;6196;48.398;11.736;2023-05-27T02:36:05;7.30;;;6.60;;
12267;SDS011;6196;48.398;11.736;2023-05-27T02:38:32;10.87;;;6.83;;
12267;SDS011;6196;48.398;11.736;2023-05-27T02:40:59;8.00;;;7.00;;
12267;SDS011;6196;48.398;11.736;2023-05-27T02:43:26;7.97;;;6.20;;
12267;SDS011;6196;48.398;11.736;2023-05-27T02:45:53;9.47;;;6.30;;
12267;SDS011;6196;48.398;11.736;2023-05-27T02:48:21;9.67;;;7.03;;
12267;SDS011;6196;48.398;11.736;2023-05-27T02:50:48;11.43;;;6.53;;
12267;SDS011;6196;48.398;11.736;2023-05-27T02:53:15;9.93;;;6.87;;
12267;SDS011;6196;48.398;11.736;2023-05-27T02:55:41;9.80;;;6.70;;
12267;SDS011;6196;48.398;11.736;2023-05-27T02:58:08;8.67;;;6.60;;
12267;SDS011;6196;48.398;11.736;2023-05-27T03:00:35;9.67;;;6.50;;
12267;SDS011;6196;48.398;11.736;2023-05-27T03:03:03;10.90;;;7.30;;
12267;SDS011;6196;48.398;11.736;2023-05-27T03:05:34;11.80;;;6.83;;
12267;SDS011;6196;48.398;11.736;2023-05-27T03:08:02;9.47;;;6.57;;
12267;SDS011;6196;48.398;11.736;2023-05-27T03:10:32;9.40;;;6.50;;
12267;SDS011;6196;48.398;11.736;2023-05-27T03:12:59;11.97;;;6.77;;
12267;SDS011;6196;48.398;11.736;2023-05-27T03:15:27;7.90;;;6.40;;
12267;SDS011;6196;48.398;11.736;2023-05-27T03:17:57;9.70;;;6.63;;
12267;SDS011;6196;48.398;11.736;2023-05-27T03:20:24;10.03;;;6.70;;
12267;SDS011;6196;48.398;11.736;2023-05-27T03:22:51;10.07;;;6.60;;
12267;SDS011;6196;48.398;11.736;2023-05-27T03:25:19;10.23;;;6.33;;
12267;SDS011;6196;48.398;11.736;2023-05-27T03:27:46;10.73;;;6.57;;
12267;SDS011;6196;48.398;11.736;2023-05-27T03:30:13;8.70;;;5.90;;
12267;SDS011;6196;48.398;11.736;2023-05-27T03:32:40;8.67;;;6.30;;
12267;SDS011;6196;48.398;11.736;2023-05-27T03:35:07;11.63;;;6.80;;
12267;SDS011;6196;48.398;11.736;2023-05-27T03:37:34;9.03;;;6.23;;
12267;SDS011;6196;48.398;11.736;2023-05-27T03:40:02;8.07;;;5.77;;
12267;SDS011;6196;48.398;11.736;2023-05-27T03:42:29;10.60;;;6.23;;
12267;SDS011;6196;48.398;11.736;2023-05-27T03:44:56;9.37;;;6.33;;
12267;SDS011;6196;48.398;11.736;2023-05-27T03:47:23;10.53;;;6.47;;
12267;SDS011;6196;48.398;11.736;2023-05-27T03:49:50;7.67;;;6.03;;
12267;SDS011;6196;48.398;11.736;2023-05-27T03:52:17;9.10;;;6.43;;
12267;SDS011;6196;48.398;11.736;2023-05-27T03:54:44;8.33;;;6.03;;
12267;SDS011;6196;48.398;11.736;2023-05-27T03:57:11;9.27;;;5.87;;
12267;SDS011;6196;48.398;11.736;2023-05-27T03:59:38;9.27;;;6.07;;
12267;SDS011;6196;48.398;11.736;2023-05-27T04:02:05;6.77;;;5.93;;
12267;SDS011;6196;48.398;11.736;2023-05-27T04:04:32;8.70;;;5.93;;
12267;SDS011;6196;48.398;11.736;2023-05-27T04:06:59;8.03;;;5.80;;
12267;SDS011;6196;48.398;11.736;2023-05-27T04:09:27;10.83;;;6.30;;
12267;SDS011;6196;48.398;11.736;2023-05-27T04:11:54;11.37;;;6.03;;
12267;SDS011;6196;48.398;11.736;2023-05-27T04:14:21;12.10;;;6.47;;
12267;SDS011;6196;48.398;11.736;2023-05-27T04:16:48;11.53;;;6.83;;
12267;SDS011;6196;48.398;11.736;2023-05-27T04:19:15;7.90;;;6.00;;
12267;SDS011;6196;48.398;11.736;2023-05-27T04:21:43;8.87;;;6.30;;
12267;SDS011;6196;48.398;11.736;2023-05-27T04:24:11;10.37;;;6.20;;
12267;SDS011;6196;48.398;11.736;2023-05-27T04:26:38;11.30;;;6.87;;
12267;SDS011;6196;48.398;11.736;2023-05-27T04:29:07;8.60;;;5.77;;
12267;SDS011;6196;48.398;11.736;2023-05-27T04:31:38;8.77;;;5.97;;
12267;SDS011;6196;48.398;11.736;2023-05-27T04:34:05;9.87;;;6.70;;
12267;SDS011;6196;48.398;11.736;2023-05-27T04:36:33;9.07;;;6.20;;
12267;SDS011;6196;48.398;11.736;2023-05-27T04:39:00;9.10;;;5.77;;
12267;SDS011;6196;48.398;11.736;2023-05-27T04:41:29;7.70;;;5.67;;
12267;SDS011;6196;48.398;11.736;2023-05-27T04:43:58;11.23;;;5.87;;
12267;SDS011;6196;48.398;11.736;2023-05-27T04:46:28;10.93;;;6.20;;
12267;SDS011;6196;48.398;11.736;2023-05-27T04:48:55;8.73;;;6.13;;
12267;SDS011;6196;48.398;11.736;2023-05-27T04:51:22;9.60;;;5.77;;
12267;SDS011;6196;48.398;11.736;2023-05-27T04:53:49;8.70;;;5.87;;
12267;SDS011;6196;48.398;11.736;2023-05-27T04:56:16;10.33;;;6.03;;
12267;SDS011;6196;48.398;11.736;2023-05-27T04:58:43;8.17;;;5.60;;
12267;SDS011;6196;48.398;11.736;2023-05-27T05:01:15;9.10;;;5.97;;
12267;SDS011;6196;48.398;11.736;2023-05-27T05:03:47;12.30;;;5.60;;
12267;SDS011;6196;48.398;11.736;2023-05-27T05:06:19;11.63;;;6.00;;
12267;SDS011;6196;48.398;11.736;2023-05-27T05:08:48;10.63;;;6.13;;
12267;SDS011;6196;48.398;11.736;2023-05-27T05:11:15;10.40;;;6.20;;
12267;SDS011;6196;48.398;11.736;2023-05-27T05:13:42;9.33;;;5.70;;
12267;SDS011;6196;48.398;11.736;2023-05-27T05:16:09;8.33;;;5.40;;
12267;SDS011;6196;48.398;11.736;2023-05-27T05:18:36;11.27;;;5.97;;
12267;SDS011;6196;48.398;11.736;2023-05-27T05:21:03;10.27;;;5.90;;
12267;SDS011;6196;48.398;11.736;2023-05-27T05:23:30;7.13;;;5.03;;
12267;SDS011;6196;48.398;11.736;2023-05-27T05:25:57;9.90;;;5.40;;
12267;SDS011;6196;48.398;11.736;2023-05-27T05:28:32;9.40;;;5.03;;
12267;SDS011;6196;48.398;11.736;2023-05-27T05:31:00;12.40;;;5.37;;
12267;SDS011;6196;48.398;11.736;2023-05-27T05:33:28;8.97;;;5.23;;
12267;SDS011;6196;48.398;11.736;2023-05-27T05:35:55;9.17;;;5.30;;
12267;SDS011;6196;48.398;11.736;2023-05-27T05:38:22;9.37;;;4.97;;
12267;SDS011;6196;48.398;11.736;2023-05-27T05:40:49;8.70;;;5.00;;
12267;SDS011;6196;48.398;11.736;2023-05-27T05:43:18;7.73;;;5.33;;
12267;SDS011;6196;48.398;11.736;2023-05-27T05:45:46;7.07;;;4.80;;
12267;SDS011;6196;48.398;11.736;2023-05-27T05:48:13;9.10;;;4.53;;
12267;SDS011;6196;48.398;11.736;2023-05-27T05:50:40;8.07;;;4.83;;
12267;SDS011;6196;48.398;11.736;2023-05-27T05:53:09;8.97;;;4.67;;
12267;SDS011;6196;48.398;11.736;2023-05-27T05:55:36;9.27;;;4.50;;
12267;SDS011;6196;48.398;11.736;2023-05-27T05:58:03;11.47;;;4.70;;
12267;SDS011;6196;48.398;11.736;2023-05-27T06:00:30;7.90;;;4.53;;
12267;SDS011;6196;48.398;11.736;2023-05-27T06:02:58;8.43;;;4.50;;
12267;SDS011;6196;48.398;11.736;2023-05-27T06:05:25;12.37;;;5.17;;
12267;SDS011;6196;48.398;11.736;2023-05-27T06:07:52;10.60;;;4.90;;
12267;SDS011;6196;48.398;11.736;2023-05-27T06:10:19;8.93;;;4.27;;
12267;SDS011;6196;48.398;11.736;2023-05-27T06:12:46;10.57;;;5.00;;
12267;SDS011;6196;48.398;11.736;2023-05-27T06:15:14;10.70;;;4.80;;
12267;SDS011;6196;48.398;11.736;2023-05-27T06:17:41;8.97;;;4.80;;
12267;SDS011;6196;48.398;11.736;2023-05-27T06:20:10;8.93;;;4.87;;
12267;SDS011;6196;48.398;11.736;2023-05-27T06:22:37;8.30;;;4.93;;
12267;SDS011;6196;48.398;11.736;2023-05-27T06:25:04;9.77;;;4.53;;
12267;SDS011;6196;48.398;11.736;2023-05-27T06:27:32;8.17;;;4.60;;
12267;SDS011;6196;48.398;11.736;2023-05-27T06:29:59;8.43;;;4.20;;
12267;SDS011;6196;48.398;11.736;2023-05-27T06:32:26;9.20;;;4.73;;
12267;SDS011;6196;48.398;11.736;2023-05-27T06:34:53;11.00;;;4.50;;
12267;SDS011;6196;48.398;11.736;2023-05-27T06:37:20;8.57;;;4.63;;
12267;SDS011;6196;48.398;11.736;2023-05-27T06:39:47;10.37;;;4.40;;
12267;SDS011;6196;48.398;11.736;2023-05-27T06:42:14;10.47;;;5.00;;
12267;SDS011;6196;48.398;11.736;2023-05-27T06:44:41;6.60;;;4.47;;
12267;SDS011;6196;48.398;11.736;2023-05-27T06:47:08;11.07;;;4.30;;
12267;SDS011;6196;48.398;11.736;2023-05-27T06:49:35;10.20;;;4.33;;
12267;SDS011;6196;48.398;11.736;2023-05-27T06:52:03;8.20;;;4.63;;
12267;SDS011;6196;48.398;11.736;2023-05-27T06:54:32;8.73;;;4.53;;
12267;SDS011;6196;48.398;11.736;2023-05-27T06:56:59;8.93;;;4.60;;
12267;SDS011;6196;48.398;11.736;2023-05-27T06:59:27;10.50;;;4.20;;
12267;SDS011;6196;48.398;11.736;2023-05-27T07:01:54;6.47;;;4.20;;
12267;SDS011;6196;48.398;11.736;2023-05-27T07:04:25;9.70;;;4.17;;
12267;SDS011;6196;48.398;11.736;2023-05-27T07:06:52;9.60;;;3.90;;
12267;SDS011;6196;48.398;11.736;2023-05-27T07:09:19;10.63;;;4.23;;
12267;SDS011;6196;48.398;11.736;2023-05-27T07:11:46;6.63;;;3.67;;
12267;SDS011;6196;48.398;11.736;2023-05-27T07:14:13;9.53;;;5.07;;
12267;SDS011;6196;48.398;11.736;2023-05-27T07:16:40;6.67;;;4.27;;
12267;SDS011;6196;48.398;11.736;2023-05-27T07:19:08;9.37;;;4.80;;
12267;SDS011;6196;48.398;11.736;2023-05-27T07:21:35;7.03;;;4.30;;
12267;SDS011;6196;48.398;11.736;2023-05-27T07:24:02;8.10;;;4.17;;
12267;SDS011;6196;48.398;11.736;2023-05-27T07:26:30;8.33;;;4.40;;
12267;SDS011;6196;48.398;11.736;2023-05-27T07:28:58;8.23;;;4.63;;
12267;SDS011;6196;48.398;11.736;2023-05-27T07:31:26;10.47;;;4.77;;
12267;SDS011;6196;48.398;11.736;2023-05-27T07:33:55;8.77;;;3.90;;
12267;SDS011;6196;48.398;11.736;2023-05-27T07:36:21;7.07;;;4.17;;
12267;SDS011;6196;48.398;11.736;2023-05-27T07:38:49;8.07;;;4.10;;
12267;SDS011;6196;48.398;11.736;2023-05-27T07:41:16;10.80;;;4.47;;
12267;SDS011;6196;48.398;11.736;2023-05-27T07:43:43;8.20;;;4.73;;
12267;SDS011;6196;48.398;11.736;2023-05-27T07:46:10;7.63;;;4.03;;
12267;SDS011;6196;48.398;11.736;2023-05-27T07:48:37;6.43;;;4.13;;
12267;SDS011;6196;48.398;11.736;2023-05-27T07:51:04;8.63;;;4.23;;
12267;SDS011;6196;48.398;11.736;2023-05-27T07:53:31;7.77;;;4.70;;
12267;SDS011;6196;48.398;11.736;2023-05-27T07:55:58;9.30;;;4.50;;
12267;SDS011;6196;48.398;11.736;2023-05-27T07:58:24;9.90;;;4.47;;
12267;SDS011;6196;48.398;11.736;2023-05-27T08:00:51;8.50;;;4.53;;
12267;SDS011;6196;48.398;11.736;2023-05-27T08:03:19;11.20;;;4.20;;
12267;SDS011;6196;48.398;11.736;2023-05-27T08:05:47;10.27;;;5.07;;
12267;SDS011;6196;48.398;11.736;2023-05-27T08:08:14;10.17;;;5.00;;
12267;SDS011;6196;48.398;11.736;2023-05-27T08:10:41;9.37;;;4.60;;
12267;SDS011;6196;48.398;11.736;2023-05-27T08:13:10;11.43;;;4.83;;
12267;SDS011;6196;48.398;11.736;2023-05-27T08:15:37;7.93;;;4.50;;
12267;SDS011;6196;48.398;11.736;2023-05-27T08:18:04;8.73;;;4.40;;
12267;SDS011;6196;48.398;11.736;2023-05-27T08:20:31;9.83;;;4.23;;
12267;SDS011;6196;48.398;11.736;2023-05-27T08:22:58;9.13;;;4.40;;
12267;SDS011;6196;48.398;11.736;2023-05-27T08:25:25;9.37;;;4.50;;
12267;SDS011;6196;48.398;11.736;2023-05-27T08:30:21;8.53;;;4.60;;
12267;SDS011;6196;48.398;11.736;2023-05-27T08:32:48;9.50;;;4.90;;
12267;SDS011;6196;48.398;11.736;2023-05-27T08:35:17;7.53;;;4.97;;
12267;SDS011;6196;48.398;11.736;2023-05-27T08:37:44;12.07;;;4.70;;
12267;SDS011;6196;48.398;11.736;2023-05-27T08:40:13;11.83;;;5.27;;
12267;SDS011;6196;48.398;11.736;2023-05-27T08:42:42;8.07;;;4.27;;
12267;SDS011;6196;48.398;11.736;2023-05-27T08:45:10;8.23;;;4.50;;
12267;SDS011;6196;48.398;11.736;2023-05-27T08:47:38;9.87;;;4.93;;
12267;SDS011;6196;48.398;11.736;2023-05-27T08:50:06;10.17;;;5.23;;
12267;SDS011;6196;48.398;11.736;2023-05-27T08:52:37;10.00;;;5.30;;
12267;SDS011;6196;48.398;11.736;2023-05-27T08:55:11;10.50;;;4.93;;
12267;SDS011;6196;48.398;11.736;2023-05-27T08:57:50;8.23;;;4.50;;
12267;SDS011;6196;48.398;11.736;2023-05-27T09:00:21;10.07;;;5.07;;
12267;SDS011;6196;48.398;11.736;2023-05-27T09:02:48;10.90;;;4.87;;
12267;SDS011;6196;48.398;11.736;2023-05-27T09:05:15;8.80;;;4.63;;
12267;SDS011;6196;48.398;11.736;2023-05-27T09:07:44;8.90;;;4.57;;
12267;SDS011;6196;48.398;11.736;2023-05-27T09:10:11;9.70;;;4.93;;
12267;SDS011;6196;48.398;11.736;2023-05-27T09:12:38;8.77;;;5.30;;
12267;SDS011;6196;48.398;11.736;2023-05-27T09:15:11;7.53;;;4.43;;
12267;SDS011;6196;48.398;11.736;2023-05-27T09:17:42;9.77;;;4.90;;
12267;SDS011;6196;48.398;11.736;2023-05-27T09:20:10;10.87;;;4.93;;
12267;SDS011;6196;48.398;11.736;2023-05-27T09:22:39;13.73;;;5.37;;
12267;SDS011;6196;48.398;11.736;2023-05-27T09:25:07;12.00;;;5.10;;
12267;SDS011;6196;48.398;11.736;2023-05-27T09:27:38;7.70;;;4.50;;
12267;SDS011;6196;48.398;11.736;2023-05-27T09:30:08;8.83;;;4.63;;
12267;SDS011;6196;48.398;11.736;2023-05-27T09:32:35;11.03;;;4.80;;
12267;SDS011;6196;48.398;11.736;2023-05-27T09:35:04;10.57;;;4.27;;
12267;SDS011;6196;48.398;11.736;2023-05-27T09:37:34;9.10;;;4.53;;
12267;SDS011;6196;48.398;11.736;2023-05-27T09:40:05;7.70;;;4.20;;
12267;SDS011;6196;48.398;11.736;2023-05-27T09:42:46;8.80;;;5.30;;
12267;SDS011;6196;48.398;11.736;2023-05-27T09:45:16;10.40;;;4.97;;
12267;SDS011;6196;48.398;11.736;2023-05-27T09:47:49;8.50;;;5.23;;
12267;SDS011;6196;48.398;11.736;2023-05-27T09:50:19;9.83;;;4.47;;
12267;SDS011;6196;48.398;11.736;2023-05-27T09:52:48;8.10;;;5.13;;
12267;SDS011;6196;48.398;11.736;2023-05-27T09:55:31;7.57;;;4.53;;
12267;SDS011;6196;48.398;11.736;2023-05-27T09:57:59;6.27;;;4.33;;
12267;SDS011;6196;48.398;11.736;2023-05-27T10:00:27;9.07;;;5.47;;
12267;SDS011;6196;48.398;11.736;2023-05-27T10:02:56;8.57;;;5.03;;
12267;SDS011;6196;48.398;11.736;2023-05-27T10:05:26;9.13;;;4.73;;
12267;SDS011;6196;48.398;11.736;2023-05-27T10:07:54;7.47;;;4.90;;
12267;SDS011;6196;48.398;11.736;2023-05-27T10:10:41;8.77;;;5.23;;
12267;SDS011;6196;48.398;11.736;2023-05-27T10:13:08;9.23;;;5.37;;
12267;SDS011;6196;48.398;11.736;2023-05-27T10:15:35;11.23;;;4.87;;
12267;SDS011;6196;48.398;11.736;2023-05-27T10:18:05;13.63;;;5.83;;
12267;SDS011;6196;48.398;11.736;2023-05-27T10:20:40;7.83;;;5.10;;
12267;SDS011;6196;48.398;11.736;2023-05-27T10:25:52;8.77;;;4.73;;
12267;SDS011;6196;48.398;11.736;2023-05-27T10:28:38;8.13;;;5.60;;
12267;SDS011;6196;48.398;11.736;2023-05-27T10:31:10;9.80;;;4.80;;
12267;SDS011;6196;48.398;11.736;2023-05-27T10:33:44;9.13;;;4.73;;
12267;SDS011;6196;48.398;11.736;2023-05-27T10:36:14;7.50;;;4.80;;
12267;SDS011;6196;48.398;11.736;2023-05-27T10:38:54;6.37;;;4.40;;
12267;SDS011;6196;48.398;11.736;2023-05-27T10:41:23;10.63;;;4.77;;
12267;SDS011;6196;48.398;11.736;2023-05-27T10:43:56;7.67;;;4.90;;
12267;SDS011;6196;48.398;11.736;2023-05-27T10:46:25;7.83;;;4.77;;
12267;SDS011;6196;48.398;11.736;2023-05-27T10:48:53;8.33;;;4.87;;
12267;SDS011;6196;48.398;11.736;2023-05-27T10:51:30;10.37;;;5.13;;
12267;SDS011;6196;48.398;11.736;2023-05-27T10:54:02;12.33;;;5.43;;
12267;SDS011;6196;48.398;11.736;2023-05-27T10:56:51;8.63;;;4.70;;
12267;SDS011;6196;48.398;11.736;2023-05-27T10:59:19;9.90;;;5.33;;
12267;SDS011;6196;48.398;11.736;2023-05-27T11:01:51;8.73;;;4.30;;
12267;SDS011;6196;48.398;11.736;2023-05-27T11:04:20;7.33;;;3.93;;
12267;SDS011;6196;48.398;11.736;2023-05-27T11:06:58;7.87;;;4.70;;
12267;SDS011;6196;48.398;11.736;2023-05-27T11:09:29;9.73;;;4.43;;
12267;SDS011;6196;48.398;11.736;2023-05-27T11:12:01;7.60;;;4.97;;
12267;SDS011;6196;48.398;11.736;2023-05-27T11:14:29;7.40;;;4.57;;
12267;SDS011;6196;48.398;11.736;2023-05-27T11:16:56;8.57;;;4.80;;
12267;SDS011;6196;48.398;11.736;2023-05-27T11:19:23;8.87;;;4.60;;
12267;SDS011;6196;48.398;11.736;2023-05-27T11:21:51;9.37;;;4.47;;
12267;SDS011;6196;48.398;11.736;2023-05-27T11:24:18;6.43;;;4.27;;
12267;SDS011;6196;48.398;11.736;2023-05-27T11:26:46;9.40;;;4.23;;
12267;SDS011;6196;48.398;11.736;2023-05-27T11:29:14;7.53;;;4.50;;
12267;SDS011;6196;48.398;11.736;2023-05-27T11:31:41;9.30;;;4.27;;
12267;SDS011;6196;48.398;11.736;2023-05-27T11:34:13;7.43;;;4.23;;
12267;SDS011;6196;48.398;11.736;2023-05-27T11:36:43;8.03;;;4.23;;
12267;SDS011;6196;48.398;11.736;2023-05-27T11:39:11;9.00;;;4.57;;
12267;SDS011;6196;48.398;11.736;2023-05-27T11:41:52;8.33;;;4.40;;
12267;SDS011;6196;48.398;11.736;2023-05-27T11:44:20;8.50;;;4.00;;
12267;SDS011;6196;48.398;11.736;2023-05-27T11:46:57;6.73;;;4.50;;
12267;SDS011;6196;48.398;11.736;2023-05-27T11:49:28;5.70;;;3.97;;
12267;SDS011;6196;48.398;11.736;2023-05-27T11:51:56;10.53;;;4.37;;
12267;SDS011;6196;48.398;11.736;2023-05-27T11:54:27;7.77;;;3.83;;
12267;SDS011;6196;48.398;11.736;2023-05-27T11:56:57;9.13;;;4.57;;
12267;SDS011;6196;48.398;11.736;2023-05-27T11:59:25;7.27;;;4.13;;
12267;SDS011;6196;48.398;11.736;2023-05-27T12:01:52;8.43;;;4.57;;
12267;SDS011;6196;48.398;11.736;2023-05-27T12:04:20;6.40;;;3.93;;
12267;SDS011;6196;48.398;11.736;2023-05-27T12:06:47;6.90;;;3.83;;
12267;SDS011;6196;48.398;11.736;2023-05-27T12:09:14;5.30;;;3.70;;
12267;SDS011;6196;48.398;11.736;2023-05-27T12:11:41;5.80;;;3.93;;
12267;SDS011;6196;48.398;11.736;2023-05-27T12:14:08;6.20;;;3.63;;
12267;SDS011;6196;48.398;11.736;2023-05-27T12:16:35;10.23;;;4.57;;
12267;SDS011;6196;48.398;11.736;2023-05-27T12:19:02;8.93;;;4.00;;
12267;SDS011;6196;48.398;11.736;2023-05-27T12:21:30;6.00;;;3.57;;
12267;SDS011;6196;48.398;11.736;2023-05-27T12:23:57;5.27;;;3.37;;
12267;SDS011;6196;48.398;11.736;2023-05-27T12:26:24;8.03;;;3.93;;
12267;SDS011;6196;48.398;11.736;2023-05-27T12:28:52;5.57;;;3.60;;
12267;SDS011;6196;48.398;11.736;2023-05-27T12:31:18;7.20;;;3.90;;
12267;SDS011;6196;48.398;11.736;2023-05-27T12:33:45;9.57;;;3.83;;
12267;SDS011;6196;48.398;11.736;2023-05-27T12:36:12;5.80;;;3.60;;
12267;SDS011;6196;48.398;11.736;2023-05-27T12:38:39;8.00;;;3.30;;
12267;SDS011;6196;48.398;11.736;2023-05-27T12:41:06;7.00;;;3.73;;
12267;SDS011;6196;48.398;11.736;2023-05-27T12:43:34;4.67;;;3.23;;
12267;SDS011;6196;48.398;11.736;2023-05-27T12:46:01;8.43;;;3.70;;
12267;SDS011;6196;48.398;11.736;2023-05-27T12:48:28;5.53;;;3.87;;
12267;SDS011;6196;48.398;11.736;2023-05-27T12:50:54;5.33;;;3.43;;
12267;SDS011;6196;48.398;11.736;2023-05-27T12:53:22;5.87;;;3.87;;
12267;SDS011;6196;48.398;11.736;2023-05-27T12:55:49;8.07;;;3.93;;
12267;SDS011;6196;48.398;11.736;2023-05-27T12:58:17;5.67;;;4.10;;
12267;SDS011;6196;48.398;11.736;2023-05-27T13:00:44;6.17;;;3.77;;
12267;SDS011;6196;48.398;11.736;2023-05-27T13:03:11;6.40;;;3.50;;
12267;SDS011;6196;48.398;11.736;2023-05-27T13:05:38;6.23;;;3.47;;
12267;SDS011;6196;48.398;11.736;2023-05-27T13:08:05;7.40;;;3.93;;
12267;SDS011;6196;48.398;11.736;2023-05-27T13:10:32;7.37;;;4.13;;
12267;SDS011;6196;48.398;11.736;2023-05-27T13:13:00;7.23;;;3.70;;
12267;SDS011;6196;48.398;11.736;2023-05-27T13:15:28;6.63;;;3.70;;
12267;SDS011;6196;48.398;11.736;2023-05-27T13:17:56;6.23;;;3.60;;
12267;SDS011;6196;48.398;11.736;2023-05-27T13:20:25;8.70;;;3.77;;
12267;SDS011;6196;48.398;11.736;2023-05-27T13:22:56;6.67;;;3.57;;
12267;SDS011;6196;48.398;11.736;2023-05-27T13:25:27;6.87;;;3.83;;
12267;SDS011;6196;48.398;11.736;2023-05-27T13:27:55;7.57;;;3.43;;
12267;SDS011;6196;48.398;11.736;2023-05-27T13:30:22;7.93;;;3.93;;
12267;SDS011;6196;48.398;11.736;2023-05-27T13:32:50;7.80;;;3.40;;
12267;SDS011;6196;48.398;11.736;2023-05-27T13:35:17;7.17;;;3.53;;
12267;SDS011;6196;48.398;11.736;2023-05-27T13:37:44;9.70;;;3.57;;
12267;SDS011;6196;48.398;11.736;2023-05-27T13:40:12;5.30;;;3.50;;
12267;SDS011;6196;48.398;11.736;2023-05-27T13:42:39;6.63;;;3.57;;
12267;SDS011;6196;48.398;11.736;2023-05-27T13:45:07;9.53;;;3.17;;
12267;SDS011;6196;48.398;11.736;2023-05-27T13:47:36;7.50;;;3.73;;
12267;SDS011;6196;48.398;11.736;2023-05-27T13:50:07;8.07;;;3.53;;
12267;SDS011;6196;48.398;11.736;2023-05-27T13:52:35;7.37;;;3.20;;
12267;SDS011;6196;48.398;11.736;2023-05-27T13:55:02;5.57;;;3.37;;
12267;SDS011;6196;48.398;11.736;2023-05-27T13:57:30;6.47;;;3.10;;
12267;SDS011;6196;48.398;11.736;2023-05-27T13:59:57;7.63;;;3.50;;
12267;SDS011;6196;48.398;11.736;2023-05-27T14:02:24;6.90;;;3.80;;
12267;SDS011;6196;48.398;11.736;2023-05-27T14:04:51;5.90;;;3.27;;
12267;SDS011;6196;48.398;11.736;2023-05-27T14:07:18;5.57;;;3.50;;
12267;SDS011;6196;48.398;11.736;2023-05-27T14:09:45;5.53;;;3.33;;
12267;SDS011;6196;48.398;11.736;2023-05-27T14:12:12;9.07;;;3.83;;
12267;SDS011;6196;48.398;11.736;2023-05-27T14:14:39;6.23;;;3.37;;
12267;SDS011;6196;48.398;11.736;2023-05-27T14:17:07;8.83;;;3.53;;
12267;SDS011;6196;48.398;11.736;2023-05-27T14:19:34;5.60;;;3.40;;
12267;SDS011;6196;48.398;11.736;2023-05-27T14:22:01;7.40;;;3.67;;
12267;SDS011;6196;48.398;11.736;2023-05-27T14:24:28;5.40;;;3.13;;
12267;SDS011;6196;48.398;11.736;2023-05-27T14:26:56;7.40;;;3.27;;
12267;SDS011;6196;48.398;11.736;2023-05-27T14:29:24;6.40;;;3.30;;
12267;SDS011;6196;48.398;11.736;2023-05-27T14:31:51;7.90;;;3.50;;
12267;SDS011;6196;48.398;11.736;2023-05-27T14:34:18;6.53;;;3.30;;
12267;SDS011;6196;48.398;11.736;2023-05-27T14:36:45;5.23;;;3.33;;
12267;SDS011;6196;48.398;11.736;2023-05-27T14:39:12;8.13;;;3.47;;
12267;SDS011;6196;48.398;11.736;2023-05-27T14:41:39;10.27;;;3.17;;
12267;SDS011;6196;48.398;11.736;2023-05-27T14:44:06;5.88;;;3.35;;
12267;SDS011;6196;48.398;11.736;2023-05-27T14:46:33;8.97;;;4.80;;
12267;SDS011;6196;48.398;11.736;2023-05-27T14:49:00;7.07;;;3.53;;
12267;SDS011;6196;48.398;11.736;2023-05-27T14:51:29;5.47;;;3.90;;
12267;SDS011;6196;48.398;11.736;2023-05-27T14:53:56;6.50;;;3.50;;
12267;SDS011;6196;48.398;11.736;2023-05-27T14:56:23;10.50;;;3.53;;
12267;SDS011;6196;48.398;11.736;2023-05-27T14:58:51;8.43;;;3.80;;